Corneil Estates, New York
Current Conditions -  °F | °C
As of 7:56 PM on Wednesday 22 Oct 2014 (Local Time) from KISP Reporting Station
Light Rain Light Rain  
Wind Chill: 52°   Ceiling: 1400
Heat Index: 52°   Visibility: 10mi
Dew Point: 48°   Wind: 26mph
Humidity: 86%   Direction: 10°N
Pressure: 29.69"   Gusts: 40mph
Location:  40.6448°N, 73.1603°W
Report Text: KISP 222356Z 01023G35KT 10SM -RA FEW010 BKN014 OVC021 11/09 A2969 RMK AO2 PK WND 01038/2318 SLP054 P0006 60024 T01110089 10133 20111 58022
Loading
Personal Weather Stations






























Interactive Weather Map
Tropical Storm Tracking
New forecast layout! Learn more

10-Day Weather Forecast

Advertisements
Track Severe Weather on mobile